Bear Town, Mississippi
Current Conditions -  °F | °C
As of 1:53 AM on Friday 19 Dec 2014 (Local Time) from KMCB Reporting Station
Haze Haze  
Wind Chill: 51°   Ceiling: 1400
Heat Index: 51°   Visibility: 6mi
Dew Point: 48°   Wind: 7mph
Humidity: 89%   Direction: 70°ENE
Pressure: 30.11"   Gusts: NA
Location:  31.1693°N, 90.3678°W
Report Text: KMCB 190753Z AUTO 07006KT 6SM BR OVC014 11/09 A3011 RMK AO2 SLP193 T01060089 $
Loading
Personal Weather Stations






























Interactive Weather Map New forecast layout! Learn more

10-Day Weather Forecast

Advertisements
Track Severe Weather on mobile